Time;durP1;ratioP1;P1;durP2;ratioP2;P2;SDS_P1;SDS_P2;PMS_P1;PMS_P2;Temp;Humidity;BMP_temperature;BMP_pressure;BME280_temperature;BME280_humidity;BME280_pressure;Samples;Min_cycle;Max_cycle;Signal;HPM_P1;HPM_P2
2022/12/07 00:01:23;;;;;;;4.80;2.57;;;;;;;-4.80;100.00;100869.32;1762183;81;21486;-70
2022/12/07 00:03:52;;;;;;;;;;;;;;;-4.83;100.00;100870.77;1764736;81;21049;-72
2022/12/07 00:06:20;;;;;;;6.07;2.50;;;;;;;-4.87;100.00;100865.17;1759973;80;20314;-73
2022/12/07 00:08:47;;;;;;;4.27;2.60;;;;;;;-4.91;100.00;100870.16;1756286;82;21022;-72
2022/12/07 00:11:19;;;;;;;4.00;2.90;;;;;;;-4.95;100.00;100860.17;1756218;81;21061;-72
2022/12/07 00:13:48;;;;;;;3.50;2.13;;;;;;;-4.99;100.00;100867.79;1755485;82;21053;-72
2022/12/07 00:16:18;;;;;;;3.07;1.97;;;;;;;-4.99;100.00;100861.20;1727391;82;21534;-71
2022/12/07 00:18:45;;;;;;;5.60;2.30;;;;;;;-4.99;100.00;100860.73;1756138;82;21021;-71
2022/12/07 00:21:16;;;;;;;6.33;2.43;;;;;;;-4.97;100.00;100852.77;1756522;82;21018;-72
2022/12/07 00:23:45;;;;;;;3.43;2.47;;;;;;;-4.96;100.00;100855.36;1756471;80;21523;-72
2022/12/07 00:26:17;;;;;;;7.70;2.57;;;;;;;-5.00;100.00;100862.09;1756132;81;21538;-71
2022/12/07 00:28:48;;;;;;;6.87;3.03;;;;;;;-5.03;100.00;100863.52;1756411;82;21009;-72
2022/12/07 00:31:16;;;;;;;3.93;2.43;;;;;;;-5.04;100.00;100859.17;1756186;81;21049;-72
2022/12/07 00:33:44;;;;;;;7.03;2.93;;;;;;;-5.09;100.00;100857.14;1756516;82;21041;-71
2022/12/07 00:36:14;;;;;;;6.47;3.00;;;;;;;-5.12;100.00;100857.23;1756281;82;21041;-73
2022/12/07 00:38:41;;;;;;;6.67;2.70;;;;;;;-5.18;100.00;100849.08;1756308;81;21005;-71
2022/12/07 00:41:21;;;;;;;7.87;2.97;;;;;;;-5.20;100.00;100857.50;1756234;81;21077;-72
2022/12/07 00:43:49;;;;;;;6.20;2.90;;;;;;;-5.21;100.00;100845.21;1756564;82;21029;-71
2022/12/07 00:46:16;;;;;;;5.60;2.93;;;;;;;-5.20;100.00;100854.86;1756401;81;21057;-71
2022/12/07 00:48:43;;;;;;;6.03;2.77;;;;;;;-5.20;100.00;100842.53;1756339;82;21064;-71
2022/12/07 00:51:12;;;;;;;3.17;2.40;;;;;;;-5.21;100.00;100846.06;1756315;81;21072;-71
2022/12/07 00:53:40;;;;;;;4.60;2.37;;;;;;;-5.21;100.00;100838.62;1756227;82;20985;-72
2022/12/07 00:56:16;;;;;;;6.40;2.90;;;;;;;-5.21;100.00;100834.20;1756364;82;21081;-72
2022/12/07 00:58:43;;;;;;;5.80;2.40;;;;;;;-5.19;100.00;100824.92;1756641;81;21010;-71
2022/12/07 01:01:11;;;;;;;6.30;2.60;;;;;;;-5.15;100.00;100818.19;1756532;81;21518;-73
2022/12/07 01:03:38;;;;;;;6.10;2.80;;;;;;;-5.12;100.00;100812.40;1756267;82;21013;-70
2022/12/07 01:06:08;;;;;;;6.53;2.73;;;;;;;-5.10;100.00;100807.93;1756493;81;21064;-72
2022/12/07 01:08:35;;;;;;;4.27;2.40;;;;;;;-5.06;100.00;100806.94;1761732;81;21005;-73
2022/12/07 01:11:06;;;;;;;4.90;2.60;;;;;;;-5.04;100.00;100799.36;1761587;81;21045;-71
2022/12/07 01:13:35;;;;;;;4.20;2.60;;;;;;;-5.02;100.00;100792.25;1761851;81;20986;-71
2022/12/07 01:16:05;;;;;;;6.40;2.70;;;;;;;-5.00;100.00;100787.77;1761543;81;21033;-71
2022/12/07 01:18:35;;;;;;;4.60;2.80;;;;;;;-4.99;100.00;100788.19;1761546;81;21041;-71
2022/12/07 01:21:09;;;;;;;6.13;2.10;;;;;;;-4.98;100.00;100799.13;1761468;81;21017;-71
2022/12/07 01:23:36;;;;;;;4.93;2.63;;;;;;;-4.98;100.00;100802.23;1761564;81;21061;-71
2022/12/07 01:26:07;;;;;;;3.87;2.60;;;;;;;-4.99;100.00;100788.19;1761608;80;21033;-71
2022/12/07 01:28:34;;;;;;;6.00;2.47;;;;;;;-4.98;100.00;100799.13;1761794;81;20961;-72
2022/12/07 01:31:05;;;;;;;7.07;2.83;;;;;;;-4.98;100.00;100804.41;1761681;81;21013;-72
2022/12/07 01:33:37;;;;;;;5.80;3.13;;;;;;;-4.97;100.00;100789.46;1761884;81;21013;-73
2022/12/07 01:36:14;;;;;;;5.03;2.80;;;;;;;-4.96;100.00;100792.48;1761539;81;21048;-71
2022/12/07 01:38:42;;;;;;;7.67;2.90;;;;;;;-4.96;100.00;100793.37;1761909;81;21455;-71
2022/12/07 01:41:10;;;;;;;4.70;2.90;;;;;;;-4.94;100.00;100790.65;1761501;81;21044;-71
2022/12/07 01:44:09;;;;;;;5.13;2.90;;;;;;;-4.93;100.00;100805.58;1761861;81;21073;-70
2022/12/07 01:46:36;;;;;;;4.70;2.57;;;;;;;-4.92;100.00;100795.44;1761912;80;21017;-70
2022/12/07 01:49:06;;;;;;;4.10;2.80;;;;;;;-4.93;100.00;100784.47;1761497;81;21033;-71
2022/12/07 01:51:33;;;;;;;4.90;2.27;;;;;;;-4.93;100.00;100787.58;1761681;81;21482;-71
2022/12/07 01:54:01;;;;;;;4.97;3.17;;;;;;;-4.92;100.00;100791.48;1761460;81;21014;-72
2022/12/07 01:56:28;;;;;;;4.67;2.63;;;;;;;-4.90;100.00;100794.07;1761462;80;21034;-71
2022/12/07 01:58:55;;;;;;;4.13;2.40;;;;;;;-4.87;100.00;100789.55;1761814;80;21033;-71
2022/12/07 02:01:22;;;;;;;3.90;2.33;;;;;;;-4.83;100.00;100787.66;1761712;81;21057;-72
2022/12/07 02:03:50;;;;;;;5.63;2.73;;;;;;;-4.81;100.00;100796.37;1761556;81;21017;-72
2022/12/07 02:06:21;;;;;;;5.10;2.93;;;;;;;-4.81;100.00;100785.82;1761818;80;21567;-72
2022/12/07 02:08:48;;;;;;;4.87;3.00;;;;;;;-4.82;100.00;100789.36;1784746;80;21025;-71
2022/12/07 02:11:15;;;;;;;6.20;2.77;;;;;;;-4.83;100.00;100791.62;1761798;81;21010;-71
2022/12/07 02:13:43;;;;;;;4.70;2.77;;;;;;;-4.86;100.00;100791.25;1761542;81;21021;-71
2022/12/07 02:16:36;;;;;;;5.10;2.33;;;;;;;-4.89;100.00;100791.35;1761886;81;21578;-71
2022/12/07 02:19:12;;;;;;;5.13;2.80;;;;;;;-4.88;100.00;100785.64;1761438;81;21069;-70
2022/12/07 06:17:34;;;;;;;9.07;4.20;;;;;;;-5.80;100.00;100683.76;1831845;77;22940;-65
2022/12/07 06:20:02;;;;;;;8.30;3.70;;;;;;;-5.75;100.00;100691.05;1781541;80;21476;-66
2022/12/07 06:22:31;;;;;;;9.40;4.33;;;;;;;-5.70;100.00;100696.18;1783337;80;21070;-65
2022/12/07 06:24:59;;;;;;;7.73;3.97;;;;;;;-5.63;100.00;100706.91;1783324;79;21026;-64
2022/12/07 06:27:28;;;;;;;10.50;4.30;;;;;;;-5.59;100.00;100702.40;1783212;79;21019;-65
2022/12/07 06:29:55;;;;;;;13.03;4.90;;;;;;;-5.57;100.00;100708.47;1783461;79;21048;-64
2022/12/07 06:32:23;;;;;;;11.77;4.70;;;;;;;-5.60;100.00;100710.73;1783181;80;21021;-66
2022/12/07 06:34:50;;;;;;;7.27;3.80;;;;;;;-5.61;100.00;100693.66;1783233;80;20997;-65
2022/12/07 06:37:18;;;;;;;10.57;4.97;;;;;;;-5.62;100.00;100695.44;1783216;79;21048;-65
2022/12/07 06:39:46;;;;;;;7.13;3.80;;;;;;;-5.62;100.00;100702.03;1783644;80;21095;-65
2022/12/07 06:42:14;;;;;;;13.40;4.53;;;;;;;-5.59;100.00;100714.26;1755406;80;21021;-66
2022/12/07 06:44:41;;;;;;;14.67;5.23;;;;;;;-5.54;100.00;100691.25;1784242;80;21048;-66
2022/12/07 06:47:09;;;;;;;12.13;5.20;;;;;;;-5.51;100.00;100700.81;1783364;80;21021;-65
2022/12/07 06:49:37;;;;;;;13.37;5.40;;;;;;;-5.51;100.00;100703.44;1788549;79;21049;-65
2022/12/07 06:52:05;;;;;;;10.63;4.63;;;;;;;-5.50;100.00;100715.25;1788812;80;21021;-65
2022/12/07 06:54:33;;;;;;;13.90;5.30;;;;;;;-5.44;100.00;100716.34;1788978;80;21048;-64
2022/12/07 06:57:00;;;;;;;13.53;5.50;;;;;;;-5.38;100.00;100724.06;1785147;80;21051;-65
2022/12/07 06:59:28;;;;;;;15.70;6.23;;;;;;;-5.30;100.00;100725.56;1783168;80;21012;-67
2022/12/07 07:01:56;;;;;;;12.30;4.53;;;;;;;-5.25;100.00;100717.05;1783018;80;21049;-66
2022/12/07 07:04:24;;;;;;;13.53;4.97;;;;;;;-5.21;100.00;100722.60;1782816;80;21025;-67
2022/12/07 07:06:53;;;;;;;9.90;4.43;;;;;;;-5.22;100.00;100717.80;1783002;79;21561;-65
2022/12/07 07:09:22;;;;;;;10.23;4.00;;;;;;;-5.21;100.00;100716.86;1781552;80;21052;-65
2022/12/07 07:11:49;;;;;;;7.90;3.57;;;;;;;-5.18;100.00;100721.19;1781337;80;21438;-64
2022/12/07 07:14:19;;;;;;;10.97;4.30;;;;;;;-5.17;100.00;100721.57;1781211;81;21072;-68
2022/12/07 07:16:46;;;;;;;7.17;4.73;;;;;;;-5.20;100.00;100726.98;1781143;80;21064;-65
2022/12/07 07:19:40;;;;;;;9.80;4.30;;;;;;;-5.23;100.00;100729.25;1781498;81;21056;-68
2022/12/07 07:22:08;;;;;;;10.37;3.93;;;;;;;-5.19;100.00;100735.27;1781341;81;21490;-65
2022/12/07 07:24:37;;;;;;;11.03;4.50;;;;;;;-5.12;100.00;100733.28;1781386;81;21060;-65
2022/12/07 07:27:04;;;;;;;11.83;4.40;;;;;;;-5.10;100.00;100732.77;1768848;80;21035;-66
2022/12/07 07:29:33;;;;;;;8.83;3.93;;;;;;;-5.12;100.00;100722.27;1740599;82;21066;-66
2022/12/07 07:32:03;;;;;;;8.47;4.10;;;;;;;-5.11;100.00;100727.11;1767818;80;21003;-67
2022/12/07 07:34:32;;;;;;;10.80;4.13;;;;;;;-5.05;100.00;100725.55;1730125;82;20965;-66
2022/12/07 07:37:01;;;;;;;13.40;4.87;;;;;;;-4.95;100.00;100732.23;1775665;80;21017;-66
2022/12/07 07:39:28;;;;;;;13.90;4.77;;;;;;;-4.83;100.00;100730.94;1778678;80;21030;-66
2022/12/07 07:41:55;;;;;;;10.43;4.67;;;;;;;-4.74;100.00;100731.05;1781499;80;21508;-68
2022/12/07 07:44:25;;;;;;;13.90;4.83;;;;;;;-4.67;100.00;100716.25;1744942;82;21139;-66
2022/12/07 07:46:54;;;;;;;21.97;6.53;;;;;;;-4.59;100.00;100723.39;1732645;82;21068;-66
2022/12/07 07:49:21;;;;;;;12.03;5.97;;;;;;;-4.54;100.00;100716.63;1782168;80;21059;-65
2022/12/07 07:51:49;;;;;;;8.70;4.47;;;;;;;-4.53;100.00;100726.29;1782067;80;21015;-65
2022/12/07 07:54:17;;;;;;;12.83;4.60;;;;;;;-4.55;100.00;100713.61;1782197;80;21038;-66
2022/12/07 07:56:45;;;;;;;12.40;4.90;;;;;;;-4.59;100.00;100710.67;1782290;79;21035;-67
2022/12/07 07:59:13;;;;;;;10.93;4.40;;;;;;;-4.59;100.00;100714.63;1781852;80;21074;-67
2022/12/07 08:02:16;;;;;;;12.53;4.30;;;;;;;-4.62;100.00;100714.73;1782426;79;21485;-69
2022/12/07 08:04:44;;;;;;;19.37;6.57;;;;;;;-4.66;100.00;100713.98;1782192;80;21023;-71
2022/12/07 08:07:11;;;;;;;24.20;11.13;;;;;;;-4.62;100.00;100713.41;1782409;80;20967;-70
2022/12/07 08:09:39;;;;;;;13.73;6.40;;;;;;;-4.58;100.00;100714.57;1781615;80;21035;-70
2022/12/07 08:12:06;;;;;;;15.70;5.57;;;;;;;-4.48;100.00;100712.45;1782159;79;21018;-71
2022/12/07 08:14:35;;;;;;;13.83;5.40;;;;;;;-4.42;100.00;100711.36;1782036;80;21089;-72
2022/12/07 08:17:02;;;;;;;10.00;4.70;;;;;;;-4.39;100.00;100709.92;1781442;80;21599;-71
2022/12/07 08:19:32;;;;;;;15.13;5.90;;;;;;;-4.35;100.00;100698.78;1781736;79;21544;-72
2022/12/07 08:22:00;;;;;;;23.87;6.40;;;;;;;-4.31;100.00;100706.97;1781675;80;21035;-72
2022/12/07 08:24:28;;;;;;;13.47;5.50;;;;;;;-4.27;100.00;100703.28;1780684;80;21856;-72
2022/12/07 08:26:57;;;;;;;18.93;7.40;;;;;;;-4.26;100.00;100702.38;1782160;80;21101;-72
2022/12/07 08:29:25;;;;;;;16.23;6.27;;;;;;;-4.23;100.00;100699.62;1782041;80;21038;-72
2022/12/07 08:31:53;;;;;;;11.23;4.83;;;;;;;-4.23;100.00;100703.58;1782108;80;21031;-71
2022/12/07 08:34:21;;;;;;;14.67;4.97;;;;;;;-4.16;100.00;100697.58;1781760;80;21066;-71
2022/12/07 08:36:49;;;;;;;17.03;6.53;;;;;;;-4.08;100.00;100698.98;1781817;80;21093;-72
2022/12/07 08:39:16;;;;;;;12.20;5.47;;;;;;;-4.02;100.00;100694.80;1782096;80;21062;-70
2022/12/07 08:41:43;;;;;;;11.33;4.70;;;;;;;-3.94;100.00;100687.87;1781666;79;21070;-71
2022/12/07 08:44:12;;;;;;;12.27;4.73;;;;;;;-3.93;100.00;100677.71;1782359;79;21034;-72
2022/12/07 08:46:45;;;;;;;13.20;5.10;;;;;;;-3.92;100.00;100680.73;1781735;80;21110;-72
2022/12/07 08:49:23;;;;;;;12.70;5.37;;;;;;;-3.88;100.00;100679.70;1782164;80;21023;-72
2022/12/07 08:51:51;;;;;;;12.70;5.03;;;;;;;-3.82;100.00;100675.95;1781359;80;21035;-72
2022/12/07 08:54:24;;;;;;;11.80;5.50;;;;;;;-3.83;100.00;100676.85;1782067;80;21021;-71
2022/12/07 08:56:53;;;;;;;10.10;4.40;;;;;;;-3.84;100.00;100673.36;1781924;80;21034;-72
2022/12/07 08:59:24;;;;;;;12.40;5.87;;;;;;;-3.82;100.00;100668.02;1699421;82;21061;-71
2022/12/07 09:01:52;;;;;;;18.77;6.33;;;;;;;-3.82;100.00;100671.98;1740806;82;21022;-72
2022/12/07 09:04:22;;;;;;;28.70;8.70;;;;;;;-3.78;100.00;100670.06;1744350;82;21066;-69
2022/12/07 09:06:50;;;;;;;21.37;8.63;;;;;;;-3.71;100.00;100647.27;1744828;81;21507;-72
2022/12/07 09:09:17;;;;;;;17.53;6.27;;;;;;;-3.56;100.00;100658.11;1722623;82;21026;-72
2022/12/07 09:11:45;;;;;;;12.83;5.00;;;;;;;-3.42;100.00;100646.47;1715797;84;21050;-70
2022/12/07 09:14:15;;;;;;;15.27;5.80;;;;;;;-3.41;100.00;100646.87;1716091;84;21546;-71
2022/12/07 09:16:43;;;;;;;25.50;10.07;;;;;;;-3.48;100.00;100644.95;1764940;81;21006;-70
2022/12/07 09:19:11;;;;;;;25.80;8.83;;;;;;;-3.47;100.00;100647.13;1764343;81;21046;-71
2022/12/07 09:21:41;;;;;;;17.77;7.93;;;;;;;-3.46;100.00;100643.57;1763490;81;21054;-72
2022/12/07 09:24:09;;;;;;;15.13;6.20;;;;;;;-3.46;100.00;100644.89;1780139;80;20991;-72
2022/12/07 09:26:39;;;;;;;11.83;4.93;;;;;;;-3.52;100.00;100647.34;1781933;80;21136;-72
2022/12/07 09:29:06;;;;;;;14.87;4.73;;;;;;;-3.63;100.00;100641.20;1781809;80;21090;-72
2022/12/07 09:31:36;;;;;;;14.50;6.37;;;;;;;-3.71;100.00;100642.45;1781838;80;21677;-71
2022/12/07 09:34:04;;;;;;;21.37;7.67;;;;;;;-3.69;100.00;100645.88;1723412;82;21019;-73
2022/12/07 09:36:33;;;;;;;18.53;7.03;;;;;;;-3.63;100.00;100649.13;1745099;82;21034;-73
2022/12/07 09:39:00;;;;;;;10.60;4.83;;;;;;;-3.56;100.00;100646.21;1745193;82;21042;-72
2022/12/07 09:41:28;;;;;;;14.40;5.40;;;;;;;-3.50;100.00;100647.28;1745159;82;21057;-76
2022/12/07 09:44:00;;;;;;;15.33;5.47;;;;;;;-3.53;100.00;100635.52;1745107;82;21042;-72
2022/12/07 09:46:28;;;;;;;13.45;5.42;;;;;;;-3.56;100.00;100643.56;1782665;80;21062;-71
2022/12/07 09:48:55;;;;;;;14.13;5.00;;;;;;;-3.60;100.00;100629.63;1782261;80;21126;-71
2022/12/07 09:51:23;;;;;;;12.77;5.20;;;;;;;-3.59;100.00;100639.28;1782447;79;21031;-73
2022/12/07 09:53:55;;;;;;;10.93;4.73;;;;;;;-3.59;100.00;100627.39;1779909;80;21101;-72
2022/12/07 09:56:22;;;;;;;15.03;5.37;;;;;;;-3.55;100.00;100626.80;1782144;80;21026;-69
2022/12/07 09:58:52;;;;;;;14.00;4.97;;;;;;;-3.53;100.00;100628.43;1782383;79;21015;-67
2022/12/07 10:17:50;;;;;;;13.10;5.80;;;;;;;-3.38;100.00;100608.84;1837751;77;22909;-71
2022/12/07 10:20:23;;;;;;;28.33;11.90;;;;;;;-3.29;100.00;100612.42;1796298;79;21010;-70
2022/12/07 10:23:05;;;;;;;14.77;6.37;;;;;;;-3.34;100.00;100606.48;1793609;78;21013;-69
2022/12/07 10:25:38;;;;;;;10.37;4.73;;;;;;;-3.41;100.00;100598.43;1793499;78;20967;-72
2022/12/07 14:12:13;;;;;;;15.57;5.87;;;;;;;-4.31;100.00;100386.16;1822173;79;23393;-71
2022/12/07 14:14:40;;;;;;;13.20;5.50;;;;;;;-4.27;100.00;100404.42;1794077;80;21063;-70
2022/12/07 14:17:19;;;;;;;17.23;5.60;;;;;;;-4.25;100.00;100397.31;1745324;79;21010;-70
2022/12/07 14:19:55;;;;;;;11.93;5.40;;;;;;;-4.23;100.00;100402.53;1804998;79;21022;-71
2022/12/07 14:22:36;;;;;;;23.57;6.17;;;;;;;-4.21;100.00;100412.56;1772753;79;21036;-72
2022/12/07 14:25:21;;;;;;;15.67;6.47;;;;;;;-4.21;100.00;100406.80;1768330;81;20985;-70
2022/12/07 14:28:00;;;;;;;14.27;6.27;;;;;;;-4.17;100.00;100405.36;1767939;81;20996;-69
2022/12/07 14:30:30;;;;;;;12.57;4.90;;;;;;;-4.14;100.00;100406.52;1768183;81;21078;-70
2022/12/07 14:33:03;;;;;;;15.50;5.67;;;;;;;-4.14;100.00;100403.44;1768053;81;21020;-69
2022/12/07 14:35:31;;;;;;;16.47;6.03;;;;;;;-4.17;100.00;100411.49;1768171;81;21031;-71
2022/12/07 14:37:59;;;;;;;14.50;6.07;;;;;;;-4.17;100.00;100413.28;1767989;81;21059;-70
2022/12/07 14:40:28;;;;;;;18.17;6.40;;;;;;;-4.20;100.00;100418.22;1768334;81;21028;-70
2022/12/07 14:43:01;;;;;;;14.00;5.40;;;;;;;-4.23;100.00;100406.02;1767835;81;21075;-70
2022/12/07 14:45:28;;;;;;;;;;;;;;;-4.24;100.00;100410.90;1770542;81;21012;-70
2022/12/07 14:47:56;;;;;;;14.37;5.33;;;;;;;-4.26;100.00;100410.58;1767957;81;20098;-70
2022/12/07 14:50:25;;;;;;;12.50;4.93;;;;;;;-4.30;100.00;100408.55;1768047;81;21000;-70
2022/12/07 14:52:59;;;;;;;11.40;5.30;;;;;;;-4.34;100.00;100409.58;1767891;81;21104;-72
2022/12/07 14:55:28;;;;;;;19.97;5.40;;;;;;;-4.37;100.00;100413.70;1768045;81;21039;-69
2022/12/07 14:57:59;;;;;;;14.20;5.07;;;;;;;-4.40;100.00;100412.50;1767691;81;21059;-71
2022/12/07 15:00:28;;;;;;;10.97;5.40;;;;;;;-4.42;100.00;100417.00;1767984;81;21011;-71
2022/12/07 15:02:55;;;;;;;19.10;6.53;;;;;;;-4.47;100.00;100418.50;1767787;81;21098;-71
2022/12/07 15:05:22;;;;;;;14.97;6.03;;;;;;;-4.51;100.00;100422.21;1768177;81;21474;-70
2022/12/07 15:07:50;;;;;;;13.60;5.63;;;;;;;-4.52;100.00;100419.16;1767579;81;21043;-69
2022/12/07 15:10:24;;;;;;;12.33;5.60;;;;;;;-4.55;100.00;100423.27;1767714;81;21051;-70
2022/12/07 15:12:51;;;;;;;19.03;6.80;;;;;;;-4.57;100.00;100423.77;1768193;81;21055;-70
2022/12/07 15:15:19;;;;;;;18.23;7.20;;;;;;;-4.58;100.00;100420.76;1768543;81;21027;-70
2022/12/07 15:17:46;;;;;;;16.10;6.60;;;;;;;-4.60;100.00;100427.89;1768341;81;21494;-71
2022/12/07 15:20:16;;;;;;;15.67;6.53;;;;;;;-4.61;100.00;100427.00;1768299;80;21036;-69
2022/12/07 15:22:43;;;;;;;14.43;6.70;;;;;;;-4.61;100.00;100427.00;1769362;81;21010;-70
2022/12/07 15:25:16;;;;;;;18.90;7.13;;;;;;;-4.63;100.00;100414.81;1769356;81;21524;-71
2022/12/07 15:27:53;;;;;;;14.20;5.80;;;;;;;-4.68;100.00;100432.15;1769155;81;21041;-67
2022/12/07 15:30:20;;;;;;;13.07;5.90;;;;;;;-4.70;100.00;100419.95;1768704;81;21002;-67
2022/12/07 15:32:52;;;;;;;12.30;5.63;;;;;;;-4.72;100.00;100413.89;1768716;81;21238;-67
2022/12/07 15:35:19;;;;;;;12.30;5.47;;;;;;;-4.73;100.00;100407.73;1768898;81;21073;-66
2022/12/07 15:37:47;;;;;;;15.83;6.00;;;;;;;-4.74;100.00;100404.72;1768765;81;20990;-67
2022/12/07 15:40:16;;;;;;;15.17;6.20;;;;;;;-4.76;100.00;100403.93;1772055;81;20982;-67
2022/12/07 15:42:43;;;;;;;19.93;7.07;;;;;;;-4.79;100.00;100402.26;1769116;81;21041;-66
2022/12/07 15:45:10;;;;;;;16.17;7.47;;;;;;;-4.82;100.00;100401.53;1768201;81;21100;-67
2022/12/07 15:47:42;;;;;;;15.10;6.80;;;;;;;-4.82;100.00;100405.48;1767928;81;21194;-67
2022/12/07 15:50:13;;;;;;;13.97;6.67;;;;;;;-4.84;100.00;100410.83;1768303;81;21041;-66
2022/12/07 15:52:40;;;;;;;14.37;5.87;;;;;;;-4.83;100.00;100405.96;1767691;81;21340;-66
2022/12/07 15:55:11;;;;;;;12.00;5.47;;;;;;;-4.82;100.00;100393.15;1767783;81;21081;-66
2022/12/07 15:57:38;;;;;;;13.23;6.00;;;;;;;-4.80;100.00;100383.85;1780997;80;21014;-67
2022/12/07 16:00:07;;;;;;;16.83;6.43;;;;;;;-4.79;100.00;100382.95;1790754;80;21523;-67
2022/12/07 16:02:34;;;;;;;14.57;6.17;;;;;;;-4.81;100.00;100384.33;1790481;79;21883;-67
2022/12/07 16:05:04;;;;;;;12.07;5.37;;;;;;;-4.81;100.00;100372.92;1790011;80;20999;-67
2022/12/07 16:07:31;;;;;;;17.43;7.23;;;;;;;-4.81;100.00;100379.52;1789887;80;20998;-66
2022/12/07 16:09:59;;;;;;;19.13;6.40;;;;;;;-4.79;100.00;100367.96;1790556;80;21030;-66
2022/12/07 16:12:26;;;;;;;14.70;6.30;;;;;;;-4.79;100.00;100362.69;1813781;79;21523;-67
2022/12/07 16:14:53;;;;;;;21.93;6.70;;;;;;;-4.78;100.00;100367.49;1817531;79;21030;-67
2022/12/07 16:17:20;;;;;;;11.67;5.23;;;;;;;-4.79;100.00;100354.77;1817218;79;21023;-66
2022/12/07 16:19:48;;;;;;;13.30;5.50;;;;;;;-4.80;100.00;100360.98;1817491;79;20991;-65
2022/12/07 16:22:15;;;;;;;19.53;5.90;;;;;;;-4.81;100.00;100365.86;1796556;79;21505;-67
2022/12/07 16:24:43;;;;;;;15.67;5.50;;;;;;;-4.81;100.00;100365.01;1795934;79;21036;-66
2022/12/07 16:27:13;;;;;;;12.40;5.00;;;;;;;-4.81;100.00;100368.50;1816714;79;21097;-66
2022/12/07 16:29:40;;;;;;;14.03;5.37;;;;;;;-4.80;100.00;100374.18;1816464;78;21105;-67
2022/12/07 16:32:07;;;;;;;13.07;5.70;;;;;;;-4.79;100.00;100368.44;1816543;79;21054;-67
2022/12/07 16:34:39;;;;;;;15.73;5.30;;;;;;;-4.79;100.00;100361.37;1817617;79;21026;-66
2022/12/07 16:37:06;;;;;;;11.97;5.30;;;;;;;-4.76;100.00;100356.44;1792766;79;21069;-67
2022/12/07 16:39:34;;;;;;;13.80;5.40;;;;;;;-4.78;100.00;100353.86;1817526;79;20994;-66
2022/12/07 16:42:01;;;;;;;13.00;5.50;;;;;;;-4.80;100.00;100353.08;1816939;79;21014;-67
2022/12/07 16:44:28;;;;;;;12.93;5.30;;;;;;;-4.81;100.00;100353.13;1815885;79;21050;-66
2022/12/07 16:46:55;;;;;;;12.80;5.83;;;;;;;-4.82;100.00;100344.34;1816091;79;21076;-67
2022/12/07 16:49:23;;;;;;;16.30;6.27;;;;;;;-4.83;100.00;100341.80;1816107;79;21062;-67
2022/12/07 16:51:52;;;;;;;13.23;5.30;;;;;;;-4.84;100.00;100340.06;1815695;79;21042;-66
2022/12/07 16:54:19;;;;;;;9.83;4.70;;;;;;;-4.83;100.00;100340.01;1815869;79;21511;-67
2022/12/07 16:56:47;;;;;;;15.50;5.67;;;;;;;-4.84;100.00;100334.32;1815829;79;21045;-67
2022/12/07 16:59:14;;;;;;;13.43;5.17;;;;;;;-4.86;100.00;100328.73;1817137;79;21436;-65
2022/12/07 17:01:41;;;;;;;12.70;5.43;;;;;;;-4.89;100.00;100336.30;1817491;79;21027;-66
2022/12/07 17:04:10;;;;;;;10.53;5.00;;;;;;;-4.91;100.00;100335.51;1817386;78;21022;-66
2022/12/07 17:06:37;;;;;;;10.60;5.07;;;;;;;-4.93;100.00;100339.15;1817196;79;20979;-67
2022/12/07 17:09:08;;;;;;;17.33;5.73;;;;;;;-4.94;100.00;100334.78;1817266;79;21045;-67
2022/12/07 17:11:33;;;;;;;12.70;5.27;;;;;;;-4.97;100.00;100331.83;1813620;79;21556;-66
2022/12/07 17:16:46;;;;;;;14.53;5.53;;;;;;;-4.93;100.00;100319.37;1808935;79;21026;-65
2022/12/07 17:19:16;;;;;;;15.73;5.83;;;;;;;-4.93;100.00;100312.30;1808740;79;21532;-66
2022/12/07 17:21:43;;;;;;;18.33;5.57;;;;;;;-4.95;100.00;100307.56;1808963;79;21485;-65
2022/12/07 17:24:12;;;;;;;12.40;5.47;;;;;;;-4.96;100.00;100305.39;1808711;79;21062;-67
2022/12/07 17:26:39;;;;;;;12.80;5.50;;;;;;;-4.97;100.00;100304.98;1809010;79;21508;-66
2022/12/07 17:29:08;;;;;;;9.80;5.07;;;;;;;-4.98;100.00;100291.86;1808702;79;21195;-67
2022/12/07 17:31:35;;;;;;;16.30;5.93;;;;;;;-4.99;100.00;100299.39;1808852;79;21081;-67
2022/12/07 17:34:02;;;;;;;8.13;4.80;;;;;;;-5.01;100.00;100286.70;1808716;79;21021;-66
2022/12/07 17:36:31;;;;;;;15.23;5.77;;;;;;;-5.04;100.00;100292.14;1808893;79;21144;-66
2022/12/07 17:38:58;;;;;;;15.47;5.87;;;;;;;-5.06;100.00;100292.20;1808859;79;21481;-66
2022/12/07 17:44:15;;;;;;;12.53;5.03;;;;;;;-5.06;100.00;100284.76;1808695;79;21073;-66
2022/12/07 17:46:43;;;;;;;13.93;5.87;;;;;;;-5.08;100.00;100286.14;1808908;79;21050;-65
2022/12/07 17:49:10;;;;;;;16.07;6.17;;;;;;;-5.09;100.00;100286.20;1808692;79;21069;-66
2022/12/07 17:54:24;;;;;;;14.80;6.27;;;;;;;-5.07;100.00;100294.90;1808843;79;21050;-67
2022/12/07 17:56:51;;;;;;;10.47;5.23;;;;;;;-5.05;100.00;100292.58;1809114;79;21484;-67
2022/12/07 17:59:18;;;;;;;11.73;5.13;;;;;;;-5.02;100.00;100280.58;1808602;79;21035;-65
2022/12/07 22:17:07;;;;;;;36.47;12.97;;;;;;;-4.11;100.00;99884.31;1783053;80;21459;-68
2022/12/07 22:19:35;;;;;;;28.73;10.37;;;;;;;-4.06;100.00;99888.89;1782801;80;21029;-70
2022/12/07 22:22:02;;;;;;;30.10;10.73;;;;;;;-4.00;100.00;99899.62;1782748;80;21463;-70
2022/12/07 22:24:31;;;;;;;25.60;10.07;;;;;;;-3.94;100.00;99889.19;1782670;80;20986;-69
2022/12/07 22:27:00;;;;;;;22.53;8.00;;;;;;;-3.90;100.00;99885.43;1782791;80;21041;-69
2022/12/07 22:29:27;;;;;;;24.50;8.97;;;;;;;-3.88;100.00;99892.80;1782716;80;21045;-68
2022/12/07 22:31:56;;;;;;;18.07;8.10;;;;;;;-3.85;100.00;99888.68;1782790;80;21025;-68
2022/12/07 22:34:25;;;;;;;24.57;8.00;;;;;;;-3.84;100.00;99891.23;1782701;80;21037;-70
2022/12/07 22:36:53;;;;;;;17.57;6.77;;;;;;;-3.82;100.00;99892.00;1782817;80;21013;-69
2022/12/07 22:39:21;;;;;;;20.17;7.73;;;;;;;-3.79;100.00;99892.77;1782629;80;21018;-70
2022/12/07 22:41:49;;;;;;;24.13;9.07;;;;;;;-3.77;100.00;99899.70;1782670;80;20986;-69
2022/12/07 22:44:18;;;;;;;19.50;7.90;;;;;;;-3.74;100.00;99907.91;1783046;80;21017;-70
2022/12/07 22:46:45;;;;;;;19.80;7.97;;;;;;;-3.71;100.00;99891.42;1782741;80;21037;-69
2022/12/07 22:49:12;;;;;;;21.57;7.30;;;;;;;-3.70;100.00;99889.17;1752429;80;21503;-68
2022/12/07 22:51:40;;;;;;;16.67;7.60;;;;;;;-3.69;100.00;99880.29;1782982;80;21061;-70
2022/12/07 22:54:14;;;;;;;16.67;6.63;;;;;;;-3.67;100.00;99884.17;1782919;80;21045;-69
2022/12/07 22:56:42;;;;;;;26.27;8.60;;;;;;;-3.66;100.00;99885.41;1752906;80;21519;-70
2022/12/07 22:59:11;;;;;;;21.03;7.77;;;;;;;-3.63;100.00;99890.98;1783127;80;20986;-69
2022/12/07 23:01:40;;;;;;;23.23;7.63;;;;;;;-3.59;100.00;99891.67;1782703;80;21061;-70
2022/12/07 23:04:07;;;;;;;17.47;6.90;;;;;;;-3.57;100.00;99885.38;1782877;80;21041;-69
2022/12/07 23:06:35;;;;;;;14.87;6.20;;;;;;;-3.54;100.00;99885.22;1782765;80;21053;-69
2022/12/07 23:09:09;;;;;;;16.13;6.10;;;;;;;-3.52;100.00;99876.73;1783000;80;20978;-70
2022/12/07 23:14:31;;;;;;;28.40;8.50;;;;;;;-3.50;100.00;99884.58;1782602;80;21499;-69
2022/12/07 23:16:59;;;;;;;22.00;7.73;;;;;;;-3.48;100.00;99887.50;1782394;80;21495;-70
2022/12/07 23:19:26;;;;;;;18.50;6.90;;;;;;;-3.47;100.00;99883.06;1782238;80;21026;-69
2022/12/07 23:21:53;;;;;;;16.00;6.50;;;;;;;-3.46;100.00;99873.72;1782221;80;21053;-69
2022/12/07 23:24:20;;;;;;;17.73;7.03;;;;;;;-3.45;100.00;99878.56;1782238;80;21491;-69
2022/12/07 23:26:48;;;;;;;16.07;6.10;;;;;;;-3.45;100.00;99878.09;1782408;80;21049;-68
2022/12/07 23:29:15;;;;;;;19.17;7.40;;;;;;;-3.45;100.00;99872.80;1782209;80;21499;-69
2022/12/07 23:31:45;;;;;;;16.07;6.73;;;;;;;-3.42;100.00;99870.92;1782221;80;21022;-69
2022/12/07 23:34:12;;;;;;;18.20;7.30;;;;;;;-3.40;100.00;99866.39;1782418;80;21066;-69
2022/12/07 23:36:41;;;;;;;23.87;8.33;;;;;;;-3.39;100.00;99868.95;1782262;80;20970;-69
2022/12/07 23:39:09;;;;;;;20.33;8.53;;;;;;;-3.36;100.00;99869.27;1782177;80;21480;-69
2022/12/07 23:41:36;;;;;;;17.47;7.33;;;;;;;-3.34;100.00;99866.06;1782557;80;21535;-70
2022/12/07 23:44:05;;;;;;;15.40;6.53;;;;;;;-3.33;100.00;99865.10;1782236;80;21049;-69